Time;durP1;ratioP1;P1;durP2;ratioP2;P2;SDS_P1;SDS_P2;PMS_P1;PMS_P2;Temp;Humidity;BMP_temperature;BMP_pressure;BME280_temperature;BME280_humidity;BME280_pressure;Samples;Min_cycle;Max_cycle;Signal;HPM_P1;HPM_P2
2021/07/29 00:02:30;;;;;;;8.07;4.80;;;;;;;29.38;46.52;100682.08;127988;1087;64110;-86
2021/07/29 00:04:57;;;;;;;6.27;4.07;;;;;;;29.38;46.75;100669.33;127982;1087;64138;-86
2021/07/29 00:07:23;;;;;;;6.07;4.27;;;;;;;29.38;46.53;100663.05;127970;1087;64138;-86
2021/07/29 00:09:52;;;;;;;6.40;4.53;;;;;;;29.39;46.90;100662.01;127994;1085;64204;-86
2021/07/29 00:12:22;;;;;;;7.03;4.30;;;;;;;29.38;46.36;100661.17;127998;1086;63955;-86
2021/07/29 00:14:54;;;;;;;7.30;4.27;;;;;;;29.38;46.97;100663.05;127964;1087;64218;-86
2021/07/29 00:19:03;;;;;;;6.60;4.20;;;;;;;29.38;46.85;100660.33;128161;1084;64276;-86
2021/07/29 00:20:26;;;;;;;6.33;4.03;;;;;;;29.38;46.43;100663.05;128428;1084;64202;-85
2021/07/29 00:23:00;;;;;;;6.33;4.27;;;;;;;29.37;46.54;100651.31;128410;1084;64010;-86
2021/07/29 00:25:27;;;;;;;6.10;4.10;;;;;;;29.37;46.73;100648.59;128370;1084;64131;-86
2021/07/29 00:27:53;;;;;;;7.20;4.20;;;;;;;29.38;46.66;100652.17;128423;1082;64220;-87
2021/07/29 00:30:21;;;;;;;6.83;4.43;;;;;;;29.37;46.89;100650.47;128381;1084;64208;-86
2021/07/29 00:32:51;;;;;;;7.67;4.53;;;;;;;29.37;46.97;100642.31;128396;1084;64243;-85
2021/07/29 00:35:25;;;;;;;7.40;4.50;;;;;;;29.38;46.57;100644.02;128402;1084;64630;-86
2021/07/29 00:37:55;;;;;;;5.87;4.20;;;;;;;29.37;46.41;100642.31;128397;1084;64022;-86
2021/07/29 00:40:21;;;;;;;6.67;4.10;;;;;;;29.36;47.08;100657.78;128418;1084;64096;-86
2021/07/29 00:42:53;;;;;;;7.80;4.37;;;;;;;29.37;46.72;100658.63;128422;1082;64092;-86
2021/07/29 00:45:19;;;;;;;6.67;4.33;;;;;;;29.37;47.06;100645.03;128385;1084;64140;-86
2021/07/29 00:47:46;;;;;;;5.67;4.00;;;;;;;29.36;46.67;100649.63;128421;1084;64093;-85
2021/07/29 00:50:20;;;;;;;6.60;4.50;;;;;;;29.36;46.66;100652.34;128453;1084;64144;-86
2021/07/29 00:52:57;;;;;;;7.70;4.70;;;;;;;29.36;46.62;100652.34;128406;1082;63907;-86
2021/07/29 00:55:32;;;;;;;6.83;4.20;;;;;;;29.36;46.57;100640.60;128381;1083;64134;-86
2021/07/29 00:57:59;;;;;;;7.47;4.23;;;;;;;29.36;47.08;100641.47;128429;1084;64124;-86
2021/07/29 01:00:25;;;;;;;7.30;4.13;;;;;;;29.35;46.96;100637.05;128431;1084;65366;-86
2021/07/29 01:02:54;;;;;;;6.80;4.13;;;;;;;29.35;46.62;100631.61;128430;1084;65340;-86
2021/07/29 01:05:23;;;;;;;6.67;3.87;;;;;;;29.35;46.82;100631.61;128377;1082;64131;-86
2021/07/29 01:07:49;;;;;;;5.83;3.70;;;;;;;29.36;46.75;100629.73;128384;1084;64093;-86
2021/07/29 01:10:17;;;;;;;6.50;4.47;;;;;;;29.35;47.08;100631.61;128420;1082;64174;-86
2021/07/29 01:12:46;;;;;;;7.03;4.13;;;;;;;29.35;47.02;100631.61;128396;1082;64124;-86
2021/07/29 01:15:17;;;;;;;7.67;4.17;;;;;;;29.35;46.92;100626.17;128446;1084;64090;-86
2021/07/29 01:17:43;;;;;;;7.00;4.20;;;;;;;29.35;46.79;100625.30;128387;1084;64779;-85
2021/07/29 01:20:10;;;;;;;6.40;4.20;;;;;;;29.34;46.87;100621.75;128461;1084;64282;-86
2021/07/29 01:22:38;;;;;;;7.10;4.10;;;;;;;29.35;46.81;100625.30;128392;1084;64098;-86
2021/07/29 01:25:05;;;;;;;6.47;4.07;;;;;;;29.35;46.83;100626.17;128409;1084;64143;-85
2021/07/29 01:27:32;;;;;;;6.80;3.87;;;;;;;29.34;47.24;100629.91;128409;1082;64131;-86
2021/07/29 01:30:04;;;;;;;7.13;4.20;;;;;;;29.35;47.14;100630.73;128424;1084;64661;-86
2021/07/29 01:32:31;;;;;;;6.77;4.30;;;;;;;29.34;47.17;100620.91;128426;1084;64131;-85
2021/07/29 01:35:00;;;;;;;6.00;4.10;;;;;;;29.34;46.98;100635.34;128387;1082;64158;-87
2021/07/29 01:37:27;;;;;;;6.63;4.07;;;;;;;29.35;46.97;100636.17;128435;1084;64095;-87
2021/07/29 01:39:56;;;;;;;7.47;4.23;;;;;;;29.34;47.18;100637.22;128427;1084;64127;-87
2021/07/29 01:42:28;;;;;;;6.83;4.17;;;;;;;29.33;47.24;100644.50;128388;1084;63942;-85
2021/07/29 01:44:56;;;;;;;6.27;4.27;;;;;;;29.34;47.23;100639.94;128376;1084;64144;-86
2021/07/29 01:47:23;;;;;;;6.08;4.08;;;;;;;29.34;47.28;100646.22;128404;1084;64578;-86
2021/07/29 01:49:53;;;;;;;6.90;4.00;;;;;;;29.35;47.02;100644.33;128409;1084;64141;-85
2021/07/29 01:52:29;;;;;;;5.70;4.10;;;;;;;29.34;47.37;100645.38;128376;1084;64025;-85
2021/07/29 01:54:55;;;;;;;7.00;4.10;;;;;;;29.33;46.87;100649.95;128394;1084;64205;-86
2021/07/29 01:57:23;;;;;;;6.80;4.57;;;;;;;29.33;47.12;100638.23;128413;1084;64170;-86
2021/07/29 01:59:51;;;;;;;6.83;4.13;;;;;;;29.33;47.27;100639.07;128453;1084;64131;-86
2021/07/29 02:02:18;;;;;;;6.23;4.18;;;;;;;29.33;47.04;100630.91;128418;1084;64208;-86
2021/07/29 02:05:04;;;;;;;6.57;4.47;;;;;;;29.32;46.92;100629.20;128382;1082;64135;-85
2021/07/29 02:07:31;;;;;;;6.80;3.90;;;;;;;29.32;47.21;100629.20;128378;1084;64176;-86
2021/07/29 02:09:57;;;;;;;6.27;4.13;;;;;;;29.33;46.94;100627.36;128481;1083;64127;-86
2021/07/29 02:12:26;;;;;;;6.77;4.10;;;;;;;29.32;47.01;100631.09;128371;1084;64125;-86
2021/07/29 02:14:57;;;;;;;6.47;4.10;;;;;;;29.32;47.08;100634.64;128380;1084;64092;-86
2021/07/29 02:17:32;;;;;;;6.23;4.40;;;;;;;29.32;47.00;100631.92;128428;1084;64132;-85
2021/07/29 02:20:01;;;;;;;6.80;4.17;;;;;;;29.33;47.35;100635.52;128443;1084;64143;-86
2021/07/29 02:22:28;;;;;;;7.27;4.37;;;;;;;29.33;46.83;100635.52;128434;1084;64181;-86
2021/07/29 02:24:57;;;;;;;5.80;4.20;;;;;;;29.32;47.70;100639.24;128422;1084;64178;-86
2021/07/29 02:27:24;;;;;;;7.03;4.40;;;;;;;29.32;47.39;100631.92;128388;1083;62909;-86
2021/07/29 02:29:51;;;;;;;5.57;4.20;;;;;;;29.33;47.08;100635.52;128427;1084;63910;-85
2021/07/29 02:32:27;;;;;;;8.80;4.23;;;;;;;29.32;47.45;100639.24;128363;1084;64061;-85
2021/07/29 02:34:53;;;;;;;7.80;4.10;;;;;;;29.32;46.95;100639.24;128465;1084;64141;-84
2021/07/29 02:37:20;;;;;;;7.03;4.30;;;;;;;29.32;47.35;100645.52;128431;1084;64252;-84
2021/07/29 02:39:47;;;;;;;6.30;3.77;;;;;;;29.32;47.40;100637.36;128491;1082;64096;-84
2021/07/29 02:42:13;;;;;;;6.73;4.53;;;;;;;29.33;46.95;100643.67;128516;1084;64124;-85
2021/07/29 02:44:41;;;;;;;7.90;4.43;;;;;;;29.33;47.37;100640.95;128403;1084;64153;-86
2021/07/29 02:47:11;;;;;;;5.85;4.03;;;;;;;29.33;47.39;100643.67;128440;1084;64204;-86
2021/07/29 02:49:40;;;;;;;5.57;3.83;;;;;;;29.32;47.42;100645.52;128449;1084;64179;-86
2021/07/29 02:52:06;;;;;;;6.10;3.90;;;;;;;29.32;47.49;100645.52;128396;1084;64136;-86
2021/07/29 02:54:41;;;;;;;6.20;3.83;;;;;;;29.33;46.95;100638.23;128442;1082;64205;-86
2021/07/29 02:57:08;;;;;;;6.13;4.23;;;;;;;29.32;47.29;100637.36;128413;1084;64238;-85
2021/07/29 02:59:47;;;;;;;6.03;4.07;;;;;;;29.32;47.44;100644.68;128450;1084;64233;-86
2021/07/29 03:02:13;;;;;;;7.47;4.57;;;;;;;29.32;47.44;100639.24;128361;1082;64205;-87
2021/07/29 03:04:47;;;;;;;6.55;4.40;;;;;;;29.31;47.08;100649.28;128381;1084;64137;-86
2021/07/29 03:07:13;;;;;;;7.00;4.10;;;;;;;29.31;47.04;100646.56;128415;1084;64119;-86
2021/07/29 03:09:39;;;;;;;6.17;3.80;;;;;;;29.31;46.96;100642.97;128423;1082;64278;-86
2021/07/29 03:12:09;;;;;;;6.03;3.83;;;;;;;29.30;47.40;100653.01;128398;1084;64092;-86
2021/07/29 03:14:38;;;;;;;5.70;4.20;;;;;;;29.32;47.26;100655.55;128401;1082;64279;-86
2021/07/29 03:17:07;;;;;;;5.93;4.30;;;;;;;29.31;46.96;100643.84;128423;1084;64291;-86
2021/07/29 03:19:36;;;;;;;6.07;3.80;;;;;;;29.31;47.41;100640.25;128435;1084;64051;-86
2021/07/29 03:22:12;;;;;;;7.73;4.10;;;;;;;29.31;47.17;100642.97;128438;1083;64138;-86
2021/07/29 03:24:38;;;;;;;6.47;3.90;;;;;;;29.31;47.06;100640.25;128388;1084;64176;-86
2021/07/29 03:27:07;;;;;;;6.27;3.73;;;;;;;29.31;47.03;100651.13;128373;1084;65165;-86
2021/07/29 03:29:47;;;;;;;6.30;4.10;;;;;;;29.30;47.39;100646.73;128416;1084;64149;-86
2021/07/29 03:32:15;;;;;;;6.97;3.97;;;;;;;29.31;47.16;100640.25;128386;1084;63942;-86
2021/07/29 03:34:41;;;;;;;6.57;3.77;;;;;;;29.31;47.40;100642.97;128402;1084;64173;-86
2021/07/29 03:37:29;;;;;;;;;;;;;;;;;;;;;
2021/07/29 03:40:03;;;;;;;6.30;4.13;;;;;;;29.32;47.08;100650.12;128408;1084;64131;-85
2021/07/29 03:42:40;;;;;;;6.70;4.30;;;;;;;29.30;47.09;100642.14;128368;1084;64154;-86
2021/07/29 03:45:10;;;;;;;6.60;3.90;;;;;;;29.30;47.52;100642.14;128372;1084;64268;-85
2021/07/29 03:47:37;;;;;;;5.90;3.90;;;;;;;29.31;47.19;100649.28;128355;1087;64314;-86
2021/07/29 03:50:03;;;;;;;6.00;3.83;;;;;;;29.32;47.26;100644.68;128391;1084;64259;-86
2021/07/29 03:52:36;;;;;;;7.60;4.30;;;;;;;29.31;47.49;100643.84;128339;1087;64134;-86
2021/07/29 03:55:04;;;;;;;5.80;3.87;;;;;;;29.32;47.45;100644.68;128375;1084;64304;-86
2021/07/29 03:57:30;;;;;;;6.33;4.28;;;;;;;29.31;47.58;100646.56;128370;1084;64128;-86
2021/07/29 04:00:23;;;;;;;5.90;4.13;;;;;;;29.32;47.48;100650.12;128348;1084;64294;-86
2021/07/29 04:02:49;;;;;;;6.57;4.13;;;;;;;29.31;47.66;100662.88;127955;1087;64105;-85
2021/07/29 04:05:16;;;;;;;6.27;4.03;;;;;;;29.31;47.38;100653.84;127930;1087;64221;-86
2021/07/29 04:07:45;;;;;;;6.35;3.95;;;;;;;29.32;47.14;100663.71;127914;1087;64275;-86
2021/07/29 04:10:14;;;;;;;6.60;4.53;;;;;;;29.32;47.17;100659.11;127996;1086;64236;-86
2021/07/29 04:12:41;;;;;;;5.77;3.90;;;;;;;29.32;47.34;100656.39;127984;1087;64200;-86
2021/07/29 04:15:16;;;;;;;6.27;4.10;;;;;;;29.32;47.18;100656.39;128001;1087;64147;-86
2021/07/29 04:17:48;;;;;;;7.33;4.40;;;;;;;29.32;47.29;100656.39;128366;1087;64135;-85
2021/07/29 04:20:14;;;;;;;5.60;3.90;;;;;;;29.32;47.46;100659.11;128033;1086;64086;-85
2021/07/29 04:22:40;;;;;;;6.27;3.80;;;;;;;29.33;47.08;100657.27;128005;1087;64054;-85
2021/07/29 04:25:27;;;;;;;6.27;4.03;;;;;;;29.33;47.52;100658.10;127991;1086;64134;-86
2021/07/29 04:27:54;;;;;;;6.78;4.05;;;;;;;29.33;47.10;100657.27;128050;1087;64590;-86
2021/07/29 04:30:32;;;;;;;5.90;4.30;;;;;;;29.33;47.33;100652.66;128015;1087;61743;-86
2021/07/29 04:32:58;;;;;;;6.10;4.00;;;;;;;29.35;47.16;100663.36;128031;1086;63957;-86
2021/07/29 04:35:28;;;;;;;6.37;3.80;;;;;;;29.34;47.34;100659.81;127996;1086;64291;-86
2021/07/29 04:38:04;;;;;;;5.57;4.27;;;;;;;29.34;47.13;100661.69;127996;1087;64241;-86
2021/07/29 04:40:29;;;;;;;;;;;;;;;29.33;47.17;100657.27;128234;1084;64278;-86
2021/07/29 04:42:56;;;;;;;5.27;3.90;;;;;;;29.33;47.18;100654.55;128454;1084;64231;-86
2021/07/29 04:45:22;;;;;;;5.37;3.97;;;;;;;29.34;47.38;100653.53;128415;1082;64202;-86
2021/07/29 04:47:55;;;;;;;5.43;3.90;;;;;;;29.34;47.40;100651.66;128402;1084;64253;-85
2021/07/29 04:50:22;;;;;;;6.90;4.30;;;;;;;29.35;47.08;100655.21;128403;1084;64176;-86
2021/07/29 04:52:52;;;;;;;7.00;4.43;;;;;;;29.35;47.41;100657.92;128412;1084;64364;-86
2021/07/29 04:55:19;;;;;;;5.93;4.07;;;;;;;29.35;47.44;100647.92;128340;1084;64124;-85
2021/07/29 04:57:46;;;;;;;6.30;3.80;;;;;;;29.36;47.39;100657.78;128229;1084;64317;-83
2021/07/29 05:00:12;;;;;;;5.47;3.93;;;;;;;29.36;47.74;100654.20;128376;1082;64227;-85
2021/07/29 05:02:39;;;;;;;6.40;4.23;;;;;;;29.36;47.48;100655.06;128398;1082;64215;-85
2021/07/29 05:05:10;;;;;;;7.97;4.40;;;;;;;29.37;47.54;100655.91;128397;1084;64136;-86
2021/07/29 05:07:36;;;;;;;6.77;4.10;;;;;;;29.37;47.34;100659.46;128326;1084;64093;-85
2021/07/29 05:10:02;;;;;;;7.00;4.10;;;;;;;29.39;47.18;100659.29;128424;1084;64354;-86
2021/07/29 05:12:38;;;;;;;6.90;4.43;;;;;;;29.38;47.32;100658.45;128397;1082;64181;-86
2021/07/29 05:15:04;;;;;;;7.67;4.77;;;;;;;29.39;47.18;100659.29;128346;1084;64223;-85
2021/07/29 05:17:31;;;;;;;6.27;4.67;;;;;;;29.39;47.38;100654.72;128363;1084;64143;-84
2021/07/29 05:20:03;;;;;;;7.07;4.60;;;;;;;29.40;47.31;100661.87;128308;1082;64282;-85
2021/07/29 05:22:29;;;;;;;7.50;4.80;;;;;;;29.40;47.05;100661.87;128304;1082;64220;-84
2021/07/29 05:25:04;;;;;;;7.93;4.50;;;;;;;29.41;47.12;100659.98;128356;1084;64106;-86
2021/07/29 05:27:31;;;;;;;8.97;5.07;;;;;;;29.41;47.10;100660.83;128368;1084;64215;-84
2021/07/29 05:30:00;;;;;;;8.10;5.17;;;;;;;29.41;47.22;100658.11;128413;1083;64147;-85
2021/07/29 05:32:35;;;;;;;9.37;5.03;;;;;;;29.42;47.11;100667.97;128380;1084;64003;-85
2021/07/29 05:35:01;;;;;;;9.00;5.20;;;;;;;29.43;47.20;100668.84;128277;1084;64100;-84
2021/07/29 05:37:27;;;;;;;8.63;5.17;;;;;;;29.43;46.69;100672.39;128386;1084;64364;-85
2021/07/29 05:39:54;;;;;;;10.40;5.33;;;;;;;29.43;46.69;100666.13;128350;1084;64198;-86
2021/07/29 05:42:23;;;;;;;8.63;5.80;;;;;;;29.43;47.00;100669.68;128214;1083;64169;-85
2021/07/29 05:44:54;;;;;;;10.43;5.33;;;;;;;29.43;46.58;100666.13;128378;1083;64121;-84
2021/07/29 05:47:21;;;;;;;10.20;5.67;;;;;;;29.41;46.75;100674.42;128364;1084;64163;-86
2021/07/29 05:49:52;;;;;;;9.37;6.10;;;;;;;29.42;46.55;100678.84;128403;1082;64265;-86
2021/07/29 05:52:19;;;;;;;8.07;5.53;;;;;;;29.41;46.91;100681.73;128380;1082;64134;-88
2021/07/29 05:54:49;;;;;;;8.90;6.13;;;;;;;29.41;46.77;100676.30;128409;1082;64252;-85
2021/07/29 05:57:24;;;;;;;9.47;6.00;;;;;;;29.41;46.71;100673.58;128446;1084;64202;-86
2021/07/29 05:59:54;;;;;;;12.30;6.57;;;;;;;29.41;46.76;100673.58;128423;1084;64155;-85
2021/07/29 06:02:20;;;;;;;13.23;6.30;;;;;;;29.41;46.69;100679.02;128386;1082;63994;-86
2021/07/29 06:04:49;;;;;;;8.77;6.00;;;;;;;29.41;46.22;100668.14;128380;1083;64153;-85
2021/07/29 06:07:16;;;;;;;10.80;6.37;;;;;;;29.39;46.40;100664.73;128378;1082;64296;-85
2021/07/29 06:09:45;;;;;;;10.53;6.10;;;;;;;29.40;46.45;100666.44;128404;1084;64144;-86
2021/07/29 06:12:15;;;;;;;12.63;6.40;;;;;;;29.39;46.16;100667.45;128410;1084;64147;-85
2021/07/29 06:14:41;;;;;;;;;;;;;;;29.37;46.24;100664.91;128313;1084;64151;-85
2021/07/29 06:17:08;;;;;;;12.43;6.70;;;;;;;29.37;46.54;100664.06;128309;1083;64131;-85
2021/07/29 06:19:36;;;;;;;14.07;6.73;;;;;;;29.38;46.32;100663.05;128270;1082;64399;-86
2021/07/29 06:22:03;;;;;;;11.80;6.85;;;;;;;29.37;46.56;100664.91;128337;1084;64131;-86
2021/07/29 06:24:29;;;;;;;10.70;6.83;;;;;;;29.38;46.53;100673.93;128335;1084;64669;-85
2021/07/29 06:26:59;;;;;;;12.80;7.40;;;;;;;29.39;46.22;100678.32;128338;1082;64131;-85
2021/07/29 06:29:25;;;;;;;10.97;6.50;;;;;;;29.40;46.17;100680.03;128431;1084;64133;-85
2021/07/29 06:31:53;;;;;;;12.20;7.17;;;;;;;29.40;46.44;100672.74;128398;1084;64199;-85
2021/07/29 06:34:19;;;;;;;13.10;7.07;;;;;;;29.40;46.36;100672.74;128433;1084;62668;-85
2021/07/29 06:36:46;;;;;;;12.63;7.70;;;;;;;29.41;46.22;100670.86;128541;1084;64182;-83
2021/07/29 06:39:12;;;;;;;15.77;7.43;;;;;;;29.42;46.00;100672.57;128458;1082;62187;-84
2021/07/29 06:41:39;;;;;;;13.37;7.47;;;;;;;29.43;46.16;100671.56;128435;1084;64160;-85
2021/07/29 06:44:07;;;;;;;11.83;7.70;;;;;;;29.45;45.94;100672.22;128365;1082;61690;-84
2021/07/29 06:46:37;;;;;;;11.70;7.20;;;;;;;29.46;46.12;100671.21;128372;1082;64764;-85
2021/07/29 06:49:05;;;;;;;12.50;7.27;;;;;;;29.46;46.19;100673.94;128385;1084;64003;-86
2021/07/29 06:51:31;;;;;;;11.97;7.60;;;;;;;29.47;45.83;100675.64;128305;1084;64048;-85
2021/07/29 06:53:59;;;;;;;13.47;7.60;;;;;;;29.49;45.91;100680.91;128326;1082;64146;-85
2021/07/29 06:56:26;;;;;;;10.73;6.93;;;;;;;29.50;45.66;100679.89;128338;1084;64235;-85
2021/07/29 06:58:52;;;;;;;14.13;7.60;;;;;;;29.51;45.72;100681.56;128328;1084;64141;-85
2021/07/29 07:01:19;;;;;;;14.13;7.73;;;;;;;29.52;45.67;100677.84;128327;1084;64176;-85
2021/07/29 07:03:46;;;;;;;11.57;7.23;;;;;;;29.51;45.47;100666.13;128293;1084;64172;-85
2021/07/29 07:06:13;;;;;;;13.85;7.40;;;;;;;29.52;45.73;100675.95;128341;1082;64137;-85
2021/07/29 07:08:39;;;;;;;13.43;7.47;;;;;;;29.53;45.67;100682.27;128293;1084;64309;-83
2021/07/29 07:11:10;;;;;;;14.37;7.10;;;;;;;29.54;45.80;100673.09;128253;1087;64138;-84
2021/07/29 07:13:36;;;;;;;10.53;6.77;;;;;;;29.55;45.24;100674.77;128301;1087;64099;-84
2021/07/29 07:16:02;;;;;;;12.07;6.50;;;;;;;29.56;45.75;100673.76;128300;1084;64185;-83
2021/07/29 07:18:28;;;;;;;14.33;6.87;;;;;;;29.56;45.46;100671.91;128320;1084;64438;-83
2021/07/29 07:21:03;;;;;;;14.57;7.00;;;;;;;29.56;45.21;100658.31;128248;1084;64029;-84
2021/07/29 07:23:30;;;;;;;13.20;7.10;;;;;;;29.56;45.63;100650.15;128267;1084;64054;-84
2021/07/29 07:25:56;;;;;;;13.35;6.60;;;;;;;29.58;45.54;100653.53;128258;1084;64355;-84
2021/07/29 07:28:23;;;;;;;12.80;6.60;;;;;;;29.59;45.53;100654.38;128320;1084;65135;-84
2021/07/29 07:30:49;;;;;;;10.03;6.57;;;;;;;29.59;45.38;100652.52;128261;1084;64237;-84
2021/07/29 07:33:15;;;;;;;9.25;6.10;;;;;;;29.61;45.18;100654.23;128312;1084;64092;-85
2021/07/29 07:35:41;;;;;;;14.73;6.87;;;;;;;29.61;45.03;100649.63;128281;1084;64134;-84
2021/07/29 07:38:07;;;;;;;11.57;6.90;;;;;;;29.62;45.03;100653.19;128289;1084;64456;-84
2021/07/29 07:40:35;;;;;;;10.60;6.77;;;;;;;29.62;45.01;100645.02;128365;1084;64099;-83
2021/07/29 07:43:02;;;;;;;12.47;6.83;;;;;;;29.62;45.09;100640.45;128268;1084;64234;-86
2021/07/29 07:45:29;;;;;;;12.43;6.70;;;;;;;29.64;44.98;100629.40;128342;1084;64310;-84
2021/07/29 07:47:55;;;;;;;11.03;6.83;;;;;;;29.62;45.04;100621.41;128353;1084;64312;-84
2021/07/29 07:50:21;;;;;;;11.00;6.43;;;;;;;29.63;45.31;100627.69;128329;1084;64124;-84
2021/07/29 07:52:47;;;;;;;11.03;6.60;;;;;;;29.65;44.95;100617.51;128370;1084;64128;-83
2021/07/29 07:55:13;;;;;;;11.13;6.60;;;;;;;29.64;45.41;100611.20;128312;1084;64086;-84
2021/07/29 07:57:39;;;;;;;10.40;6.00;;;;;;;29.65;44.83;100614.78;128328;1084;64125;-84
2021/07/29 08:00:06;;;;;;;13.20;6.80;;;;;;;29.65;45.12;100612.06;128361;1084;64275;-84
2021/07/29 08:02:33;;;;;;;9.27;5.63;;;;;;;29.65;44.85;100614.78;128338;1081;64253;-84
2021/07/29 08:04:59;;;;;;;9.40;5.40;;;;;;;29.66;44.81;100609.17;128347;1082;64198;-84
2021/07/29 08:07:25;;;;;;;10.67;6.00;;;;;;;29.66;45.05;100611.02;128311;1084;64131;-83
2021/07/29 08:09:51;;;;;;;11.50;6.00;;;;;;;29.67;44.75;100608.16;128370;1084;64204;-84
2021/07/29 08:12:17;;;;;;;10.03;6.03;;;;;;;29.66;44.61;100614.61;128336;1082;64138;-84
2021/07/29 08:14:44;;;;;;;9.20;6.10;;;;;;;29.67;44.84;100610.88;128338;1083;64349;-84
2021/07/29 08:17:12;;;;;;;12.67;6.20;;;;;;;29.67;44.92;100608.16;128315;1084;64150;-84
2021/07/29 08:19:38;;;;;;;10.23;6.43;;;;;;;29.67;44.57;100601.84;128338;1084;64181;-84
2021/07/29 08:22:04;;;;;;;10.53;6.00;;;;;;;29.67;44.66;100586.39;128324;1084;64144;-85
2021/07/29 08:24:33;;;;;;;12.63;6.23;;;;;;;29.67;44.44;100583.67;128301;1084;64365;-84
2021/07/29 08:27:01;;;;;;;13.17;6.13;;;;;;;29.68;44.67;100585.34;128340;1084;63321;-85
2021/07/29 08:29:30;;;;;;;8.73;5.10;;;;;;;29.68;44.35;100598.95;128352;1084;64131;-84
2021/07/29 08:31:58;;;;;;;8.87;5.70;;;;;;;29.69;44.54;100606.09;128307;1084;64127;-84
2021/07/29 08:34:25;;;;;;;8.83;6.18;;;;;;;29.69;44.44;100606.09;128399;1084;64147;-85
2021/07/29 08:36:51;;;;;;;9.73;6.30;;;;;;;29.70;44.15;100606.97;128303;1084;64291;-84
2021/07/29 08:39:17;;;;;;;12.80;6.13;;;;;;;29.69;44.02;100595.22;128298;1084;64222;-84
2021/07/29 08:41:44;;;;;;;9.60;6.07;;;;;;;29.70;43.89;100599.64;128321;1084;64722;-85
2021/07/29 08:44:10;;;;;;;9.20;5.50;;;;;;;29.69;43.84;100597.94;128330;1084;64182;-84
2021/07/29 08:46:36;;;;;;;10.00;5.47;;;;;;;29.70;43.59;100596.08;128298;1084;64099;-84
2021/07/29 08:49:02;;;;;;;14.57;6.17;;;;;;;29.70;43.51;100591.48;128290;1084;64153;-85
2021/07/29 08:51:29;;;;;;;12.63;5.83;;;;;;;29.70;43.07;100596.92;128232;1087;64269;-84
2021/07/29 08:54:04;;;;;;;9.23;5.43;;;;;;;29.72;43.11;100591.30;128199;1084;64123;-84
2021/07/29 08:56:30;;;;;;;11.97;6.50;;;;;;;29.72;42.44;100594.02;128246;1087;64096;-84
2021/07/29 08:58:56;;;;;;;11.47;6.53;;;;;;;29.73;42.65;100584.84;128286;1082;64212;-84
2021/07/29 09:01:41;;;;;;;13.67;7.33;;;;;;;29.74;42.90;100583.84;128233;1082;64204;-84
2021/07/29 09:04:15;;;;;;;12.30;8.00;;;;;;;29.73;42.67;100584.84;128259;1085;64240;-84
2021/07/29 09:07:20;;;;;;;11.57;6.57;;;;;;;29.74;42.26;100581.95;128292;1083;64124;-84
2021/07/29 09:09:48;;;;;;;12.23;6.60;;;;;;;29.74;42.74;100571.06;127898;1087;64086;-84
2021/07/29 09:12:26;;;;;;;10.27;6.20;;;;;;;29.75;42.62;100571.91;127874;1086;64102;-85
2021/07/29 09:14:53;;;;;;;11.13;6.00;;;;;;;29.74;42.68;100572.95;127828;1086;64103;-84
2021/07/29 09:17:20;;;;;;;14.13;6.37;;;;;;;29.73;43.25;100569.36;128043;1086;64158;-85
2021/07/29 09:19:53;;;;;;;9.60;5.80;;;;;;;29.74;42.91;100562.07;127924;1087;64300;-85
2021/07/29 09:22:24;;;;;;;11.17;6.43;;;;;;;29.74;43.38;100565.63;127948;1086;64055;-85
2021/07/29 09:25:09;;;;;;;9.53;6.10;;;;;;;29.72;43.26;100564.94;127957;1087;64269;-85
2021/07/29 09:27:38;;;;;;;8.70;5.30;;;;;;;29.73;43.53;100565.80;128297;1086;64217;-84
2021/07/29 09:30:25;;;;;;;10.87;6.50;;;;;;;29.72;43.13;100567.66;127962;1087;64221;-84
2021/07/29 09:32:52;;;;;;;9.43;6.17;;;;;;;29.72;43.64;100562.22;127930;1085;64209;-84
2021/07/29 09:35:54;;;;;;;11.73;6.33;;;;;;;29.72;43.23;100570.38;128271;1087;64269;-85
2021/07/29 09:38:39;;;;;;;9.73;5.77;;;;;;;29.71;43.35;100565.11;127865;1090;64316;-84
2021/07/29 09:41:06;;;;;;;11.20;6.17;;;;;;;29.72;43.81;100569.54;128089;1087;64405;-84
2021/07/29 09:43:34;;;;;;;11.53;6.60;;;;;;;29.70;43.88;100569.72;128312;1085;64234;-84
2021/07/29 09:46:02;;;;;;;10.50;6.33;;;;;;;29.70;43.64;100564.28;128319;1087;64098;-84
2021/07/29 09:48:28;;;;;;;9.47;6.03;;;;;;;29.70;43.79;100558.84;128303;1087;64230;-84
2021/07/29 09:50:59;;;;;;;10.80;6.40;;;;;;;29.70;44.07;100552.56;128313;1087;64383;-85
2021/07/29 09:53:35;;;;;;;9.83;6.27;;;;;;;29.70;43.51;100555.28;128345;1086;64552;-85
2021/07/29 09:56:07;;;;;;;11.10;6.23;;;;;;;29.70;43.76;100553.40;128287;1086;64536;-85
2021/07/29 09:58:38;;;;;;;9.97;6.20;;;;;;;29.71;43.54;100546.07;128336;1087;64262;-85
2021/07/29 10:01:07;;;;;;;10.43;6.37;;;;;;;29.70;43.94;100544.40;128312;1087;63942;-85
2021/07/29 10:03:37;;;;;;;9.70;6.20;;;;;;;29.70;44.11;100547.13;128317;1086;64140;-85
2021/07/29 10:06:11;;;;;;;13.00;6.90;;;;;;;29.69;43.76;100543.53;128305;1087;64310;-84
2021/07/29 10:08:38;;;;;;;10.87;6.43;;;;;;;29.70;43.66;100541.67;128297;1087;64157;-85
2021/07/29 10:11:07;;;;;;;8.60;6.10;;;;;;;29.69;43.51;100543.53;128326;1086;64045;-84
2021/07/29 10:13:37;;;;;;;9.93;6.10;;;;;;;29.70;43.65;100547.95;128322;1084;63910;-84
2021/07/29 10:16:06;;;;;;;10.47;6.10;;;;;;;29.70;43.92;100544.40;128543;1084;64219;-86
2021/07/29 10:18:51;;;;;;;10.60;6.50;;;;;;;29.69;43.67;100538.09;128244;1084;64141;-85
2021/07/29 10:21:41;;;;;;;12.53;6.80;;;;;;;29.69;43.97;100537.25;128297;1084;64115;-85
2021/07/29 10:24:13;;;;;;;10.80;6.50;;;;;;;29.69;44.05;100535.38;128362;1087;64138;-85
2021/07/29 10:27:08;;;;;;;10.93;6.33;;;;;;;29.70;43.56;100536.23;127964;1087;64096;-85
2021/07/29 10:29:35;;;;;;;10.83;6.53;;;;;;;29.69;43.55;100532.66;127909;1090;65874;-85
2021/07/29 10:32:02;;;;;;;10.13;6.57;;;;;;;29.69;43.77;100534.53;127948;1090;64160;-85
2021/07/29 10:34:32;;;;;;;9.17;6.33;;;;;;;29.69;43.91;100540.81;127818;1090;64169;-85
2021/07/29 10:36:59;;;;;;;13.50;6.43;;;;;;;29.69;43.80;100539.97;127821;1090;64237;-84
2021/07/29 10:39:26;;;;;;;10.57;6.40;;;;;;;29.70;43.69;100533.52;127802;1089;64619;-85
2021/07/29 10:41:54;;;;;;;8.43;6.30;;;;;;;29.70;43.70;100536.23;127876;1090;64067;-85
2021/07/29 10:44:35;;;;;;;10.28;6.25;;;;;;;29.70;43.71;100536.23;127769;1088;64255;-86
2021/07/29 10:47:07;;;;;;;9.80;6.23;;;;;;;29.68;43.81;100530.95;127907;1090;64278;-86
2021/07/29 10:49:52;;;;;;;10.47;6.43;;;;;;;29.69;43.94;100529.09;127776;1089;64220;-86
2021/07/29 10:52:18;;;;;;;9.57;6.27;;;;;;;29.69;43.74;100527.20;127915;1089;64217;-86
2021/07/29 10:54:45;;;;;;;9.37;5.90;;;;;;;29.68;43.76;100522.78;127696;1090;64163;-86
2021/07/29 10:57:13;;;;;;;9.27;6.40;;;;;;;29.68;43.71;100528.22;127777;1090;64143;-86
2021/07/29 10:59:40;;;;;;;11.17;6.40;;;;;;;29.69;43.65;100531.81;127923;1090;63951;-86
2021/07/29 11:02:26;;;;;;;;;;;;;;;;;;;;;
2021/07/29 11:04:56;;;;;;;11.40;6.60;;;;;;;29.67;43.93;100529.27;128036;1087;64269;-86
2021/07/29 11:07:23;;;;;;;10.63;6.40;;;;;;;29.67;43.65;100529.27;128322;1084;64202;-86
2021/07/29 11:10:06;;;;;;;8.60;5.87;;;;;;;29.67;43.95;100526.55;128407;1083;64185;-86
2021/07/29 11:12:36;;;;;;;12.60;6.23;;;;;;;29.66;43.61;100519.41;128422;1084;63907;-86
2021/07/29 11:15:08;;;;;;;9.17;6.40;;;;;;;29.66;43.82;100522.13;128402;1084;64138;-87
2021/07/29 11:17:38;;;;;;;10.50;6.33;;;;;;;29.67;43.67;100520.24;128424;1084;64101;-86
2021/07/29 11:20:05;;;;;;;10.57;6.03;;;;;;;29.67;44.06;100528.41;128388;1084;64227;-86
2021/07/29 11:22:46;;;;;;;10.33;6.07;;;;;;;29.66;44.06;100523.98;128388;1084;64174;-87
2021/07/29 11:25:13;;;;;;;9.30;6.00;;;;;;;29.67;43.83;100528.41;128368;1084;64172;-86
2021/07/29 11:28:13;;;;;;;9.00;6.20;;;;;;;29.66;43.73;100522.13;128348;1084;64322;-86
2021/07/29 11:30:42;;;;;;;8.77;5.87;;;;;;;29.66;43.67;100522.13;127912;1086;64243;-86